createdAt,value
2023-04-17T00:02:30.038Z,102432.66
2023-04-17T00:04:58.657Z,102436.81
2023-04-17T00:07:28.424Z,102427.56
2023-04-17T00:09:56.784Z,102437.59
2023-04-17T00:12:25.065Z,102415.13
2023-04-17T00:14:53.440Z,102430.75
2023-04-17T00:17:21.770Z,102422.63
2023-04-17T00:19:51.439Z,102412.63
2023-04-17T00:22:19.731Z,102425.16
2023-04-17T00:24:47.976Z,102424.38
2023-04-17T00:27:16.258Z,102425.78
2023-04-17T00:29:44.516Z,102420.69
2023-04-17T00:32:12.779Z,102431.53
2023-04-17T00:34:41.145Z,102426.13
2023-04-17T00:37:10.831Z,102431.53
2023-04-17T00:39:39.110Z,102427.72
2023-04-17T00:42:07.518Z,102428.81
2023-04-17T00:44:35.903Z,102414.31
2023-04-17T00:47:04.394Z,102426.22
2023-04-17T00:49:33.460Z,102417.31
2023-04-17T00:52:04.866Z,102425.78
2023-04-17T00:54:34.836Z,102411.44
2023-04-17T00:57:04.844Z,102417.66
2023-04-17T00:59:34.032Z,102417.66
2023-04-17T01:02:02.543Z,102407.94
2023-04-17T01:04:31.191Z,102410.66
2023-04-17T01:07:00.392Z,102407.94
2023-04-17T01:09:28.982Z,102407.13
2023-04-17T01:12:17.800Z,102419.88
2023-04-17T01:14:46.061Z,102408.53
2023-04-17T01:17:15.380Z,102416.66
2023-04-17T01:19:43.656Z,102412.66
2023-04-17T01:22:11.943Z,102416.66
2023-04-17T01:24:41.627Z,102418.28
2023-04-17T01:27:10.032Z,102421.00
2023-04-17T01:29:38.310Z,102413.94
2023-04-17T01:32:07.254Z,102412.03
2023-04-17T01:34:37.447Z,102421.59
2023-04-17T01:37:07.066Z,102421.59
2023-04-17T01:39:36.382Z,102424.16
2023-04-17T01:42:06.765Z,102424.44
2023-04-17T01:44:37.461Z,102429.38
2023-04-17T01:47:06.031Z,102426.22
2023-04-17T01:49:34.604Z,102423.00
2023-04-17T01:52:02.862Z,102424.59
2023-04-17T01:54:31.087Z,102426.22
2023-04-17T01:56:59.569Z,102415.41
2023-04-17T01:59:29.336Z,102430.00
2023-04-17T02:01:57.932Z,102423.78
2023-04-17T02:04:26.430Z,102423.78
2023-04-17T02:06:54.996Z,102419.00
2023-04-17T02:09:23.534Z,102432.22
2023-04-17T02:11:51.834Z,102426.81
2023-04-17T02:14:20.336Z,102428.41
2023-04-17T02:16:50.269Z,102423.50
2023-04-17T02:19:18.701Z,102426.22
2023-04-17T02:21:46.937Z,102425.06
2023-04-17T02:24:15.301Z,102423.50
2023-04-17T02:26:43.863Z,102424.28
2023-04-17T02:29:12.354Z,102426.69
2023-04-17T02:31:42.320Z,102422.38
2023-04-17T02:34:12.117Z,102423.97
2023-04-17T02:36:40.406Z,102422.84
2023-04-17T02:39:08.725Z,102423.97
2023-04-17T02:41:36.975Z,102425.88
2023-04-17T02:44:05.450Z,102429.22
2023-04-17T02:46:33.705Z,102425.72
2023-04-17T02:49:01.930Z,102431.63
2023-04-17T02:51:31.537Z,102427.78
2023-04-17T02:53:59.796Z,102427.00
2023-04-17T02:56:28.004Z,102424.59
2023-04-17T02:58:56.364Z,102427.31
2023-04-17T03:01:24.666Z,102429.22
2023-04-17T03:03:53.347Z,102434.94
2023-04-17T03:06:21.801Z,102433.84
2023-04-17T03:08:51.603Z,102424.13
2023-04-17T03:11:19.959Z,102432.22
2023-04-17T03:13:48.251Z,102433.84
2023-04-17T03:16:16.775Z,102433.03
2023-04-17T03:18:45.100Z,102436.06
2023-04-17T03:21:13.428Z,102437.16
2023-04-17T03:23:41.653Z,102438.91
2023-04-17T03:26:11.356Z,102429.19
2023-04-17T03:28:39.599Z,102434.59
2023-04-17T03:31:07.832Z,102438.91
2023-04-17T03:33:37.869Z,102436.19
2023-04-17T03:36:07.150Z,102435.06
2023-04-17T03:38:36.990Z,102435.72
2023-04-17T03:41:05.328Z,102437.31
2023-04-17T03:43:35.020Z,102436.50
2023-04-17T03:46:03.463Z,102433.59
2023-04-17T03:48:32.368Z,102433.47
2023-04-17T03:51:00.727Z,102427.56
2023-04-17T03:53:30.897Z,102427.84
2023-04-17T03:55:59.241Z,102427.56
2023-04-17T03:58:27.530Z,102440.25
2023-04-17T04:00:58.588Z,102437.56
2023-04-17T04:03:27.129Z,102438.19
2023-04-17T04:05:55.724Z,102438.97
2023-04-17T04:08:23.995Z,102445.06
2023-04-17T04:10:52.427Z,102443.41
2023-04-17T04:13:20.655Z,102442.63
2023-04-17T04:15:48.997Z,102439.44
2023-04-17T04:18:18.781Z,102436.25
2023-04-17T04:20:47.327Z,102445.47
2023-04-17T04:23:16.844Z,102446.56
2023-04-17T04:25:45.986Z,102452.00
2023-04-17T04:28:14.390Z,102439.09
2023-04-17T04:30:46.325Z,102448.00
2023-04-17T04:33:14.913Z,102441.47
2023-04-17T04:35:47.684Z,102452.91
2023-04-17T04:38:17.752Z,102453.22
2023-04-17T04:40:50.090Z,102450.50
2023-04-17T04:43:20.834Z,102456.25
2023-04-17T04:45:50.570Z,102459.72
2023-04-17T04:48:18.850Z,102462.44
2023-04-17T04:50:48.679Z,102465.13
2023-04-17T04:53:17.070Z,102468.38
2023-04-17T04:55:45.417Z,102462.94
2023-04-17T04:58:13.887Z,102468.38
2023-04-17T05:00:42.307Z,102462.94
2023-04-17T05:03:11.138Z,102471.88
2023-04-17T05:05:41.243Z,102480.78
2023-04-17T05:08:10.910Z,102478.34
2023-04-17T05:10:39.199Z,102470.53
2023-04-17T05:13:07.430Z,102475.50
2023-04-17T05:15:35.811Z,102483.63
2023-04-17T05:18:04.235Z,102483.63
2023-04-17T05:20:32.705Z,102486.00
2023-04-17T05:23:02.744Z,102488.72
2023-04-17T05:25:32.367Z,102487.13
2023-04-17T05:28:00.646Z,102487.91
2023-04-17T05:30:28.996Z,102486.00
2023-04-17T05:32:58.650Z,102487.91
2023-04-17T05:35:27.266Z,102495.41
2023-04-17T05:37:56.168Z,102496.22
2023-04-17T05:40:24.662Z,102490.50
2023-04-17T05:42:54.281Z,102493.50
2023-04-17T05:45:24.935Z,102491.88
2023-04-17T05:47:53.965Z,102487.59
2023-04-17T05:50:22.462Z,102495.41
2023-04-17T05:52:50.772Z,102485.41
2023-04-17T05:55:20.297Z,102487.78
2023-04-17T05:57:48.635Z,102493.38
2023-04-17T06:00:20.842Z,102499.59
2023-04-17T06:02:49.811Z,102495.16
2023-04-17T06:05:18.761Z,102498.97
2023-04-17T06:07:47.059Z,102500.56
2023-04-17T06:10:15.628Z,102500.56
2023-04-17T06:12:44.056Z,102500.09
2023-04-17T06:15:13.223Z,102506.59
2023-04-17T06:17:42.971Z,102499.59
2023-04-17T06:20:11.897Z,102505.50
2023-04-17T06:22:44.284Z,102503.91
2023-04-17T06:25:12.637Z,102513.31
2023-04-17T06:27:40.964Z,102516.81
2023-04-17T06:30:10.749Z,102508.69
2023-04-17T06:32:44.371Z,102507.88
2023-04-17T06:35:13.207Z,102521.63
2023-04-17T06:37:41.679Z,102515.88
2023-04-17T06:40:12.383Z,102512.84
2023-04-17T06:42:40.987Z,102523.09
2023-04-17T06:45:10.637Z,102528.19
2023-04-17T06:47:39.069Z,102528.66
2023-04-17T06:50:11.109Z,102536.19
2023-04-17T06:52:39.345Z,102530.47
2023-04-17T06:55:08.908Z,102541.28
2023-04-17T06:57:37.146Z,102533.16
2023-04-17T07:00:06.748Z,102540.19
2023-04-17T07:02:35.196Z,102538.59
2023-04-17T07:05:08.735Z,102539.88
2023-04-17T07:07:37.358Z,102539.25
2023-04-17T07:10:06.934Z,102549.75
2023-04-17T07:12:35.177Z,102547.53
2023-04-17T07:15:03.600Z,102552.97
2023-04-17T07:17:31.968Z,102556.19
2023-04-17T07:20:00.302Z,102561.59
2023-04-17T07:22:29.990Z,102572.56
2023-04-17T07:24:58.348Z,102569.56
2023-04-17T07:27:26.710Z,102568.75
2023-04-17T07:29:55.707Z,102563.06
2023-04-17T07:32:25.704Z,102577.06
2023-04-17T07:34:54.059Z,102572.13
2023-04-17T07:37:22.528Z,102576.97
2023-04-17T07:39:52.985Z,102579.34
2023-04-17T07:42:21.481Z,102577.09
2023-04-17T07:44:50.363Z,102582.59
2023-04-17T07:47:18.789Z,102584.66
2023-04-17T07:49:49.304Z,102572.09
2023-04-17T07:52:18.100Z,102575.78
2023-04-17T07:54:46.449Z,102572.44
2023-04-17T07:57:18.104Z,102577.75
2023-04-17T07:59:47.279Z,102566.75
2023-04-17T08:02:16.957Z,102568.06
2023-04-17T08:04:45.628Z,102576.03
2023-04-17T08:07:14.498Z,102570.78
2023-04-17T08:09:44.109Z,102572.56
2023-04-17T08:12:12.626Z,102578.19
2023-04-17T08:14:43.808Z,102580.41
2023-04-17T08:17:12.011Z,102575.44
2023-04-17T08:19:40.482Z,102577.25
2023-04-17T08:22:09.471Z,102580.75
2023-04-17T08:24:37.760Z,102575.78
2023-04-17T08:27:07.801Z,102586.31
2023-04-17T08:29:36.089Z,102585.19
2023-04-17T08:32:13.344Z,102579.16
2023-04-17T08:34:42.818Z,102586.19
2023-04-17T08:37:11.211Z,102590.81
2023-04-17T08:39:39.967Z,102595.88
2023-04-17T08:42:15.372Z,102590.66
2023-04-17T08:44:45.057Z,102592.75
2023-04-17T08:47:18.370Z,102601.84
2023-04-17T08:49:47.419Z,102590.69
2023-04-17T08:52:16.760Z,102593.22
2023-04-17T08:54:45.394Z,102590.84
2023-04-17T08:57:13.701Z,102587.84
2023-04-17T08:59:43.820Z,102589.75
2023-04-17T09:02:14.435Z,102584.16
2023-04-17T09:04:44.555Z,102589.72
2023-04-17T09:07:15.539Z,102593.75
2023-04-17T09:09:52.720Z,102587.66
2023-04-17T09:12:23.087Z,102593.56
2023-04-17T09:14:51.850Z,102590.84
2023-04-17T09:17:24.164Z,102588.94
2023-04-17T09:20:09.078Z,102599.81
2023-04-17T09:22:41.181Z,102596.78
2023-04-17T09:25:18.203Z,102599.97
2023-04-17T09:27:47.445Z,102595.34
2023-04-17T09:30:16.128Z,102601.25
2023-04-17T09:32:46.071Z,102595.50
2023-04-17T09:35:26.132Z,102600.59
2023-04-17T09:37:56.419Z,102601.03
2023-04-17T09:40:26.009Z,102604.44
2023-04-17T09:42:59.835Z,102587.00
2023-04-17T09:45:33.393Z,102594.97
2023-04-17T09:48:06.368Z,102597.16
2023-04-17T09:50:36.636Z,102594.75
2023-04-17T09:53:08.227Z,102584.38
2023-04-17T09:55:38.005Z,102586.56
2023-04-17T09:58:08.482Z,102595.06
2023-04-17T10:00:38.232Z,102593.09
2023-04-17T10:03:09.643Z,102587.31
2023-04-17T10:05:38.722Z,102597.34
2023-04-17T10:08:08.246Z,102591.03
2023-04-17T10:10:36.682Z,102583.16
2023-04-17T10:13:08.481Z,102582.81
2023-04-17T10:15:37.568Z,102588.50
2023-04-17T10:18:24.532Z,102582.56
2023-04-17T10:20:55.240Z,102589.41
2023-04-17T10:23:34.903Z,102585.19
2023-04-17T10:26:45.784Z,102578.41
2023-04-17T10:29:14.232Z,102591.81
2023-04-17T10:32:28.423Z,102573.19
2023-04-17T10:35:00.831Z,102577.91
2023-04-17T10:38:05.355Z,102588.34
2023-04-17T10:40:36.408Z,102565.81
2023-04-17T10:43:07.684Z,102571.84
2023-04-17T10:46:13.331Z,102574.19
2023-04-17T10:48:50.635Z,102559.44
2023-04-17T10:51:43.188Z,102566.84
2023-04-17T10:54:13.799Z,102563.44
2023-04-17T10:56:46.148Z,102567.53
2023-04-17T10:59:16.380Z,102555.84
2023-04-17T11:02:00.921Z,102557.56
2023-04-17T11:04:31.457Z,102568.22
2023-04-17T11:07:01.987Z,102567.91
2023-04-17T11:09:30.941Z,102562.53
2023-04-17T11:12:02.676Z,102564.69
2023-04-17T11:14:31.993Z,102553.56
2023-04-17T11:17:00.312Z,102565.59
2023-04-17T11:19:28.687Z,102556.25
2023-04-17T11:21:58.950Z,102558.97
2023-04-17T11:24:31.040Z,102556.81
2023-04-17T11:27:01.310Z,102561.31
2023-04-17T11:29:29.704Z,102558.78
2023-04-17T11:31:59.591Z,102551.94
2023-04-17T11:34:28.236Z,102547.81
2023-04-17T11:36:58.955Z,102547.75
2023-04-17T11:39:31.550Z,102550.50
2023-04-17T11:42:00.426Z,102552.50
2023-04-17T11:44:30.641Z,102555.13
2023-04-17T11:46:59.851Z,102552.84
2023-04-17T11:49:29.507Z,102551.25
2023-04-17T11:52:01.175Z,102545.06
2023-04-17T11:54:34.687Z,102543.59
2023-04-17T11:57:05.421Z,102545.97
2023-04-17T11:59:36.915Z,102555.50
2023-04-17T12:02:07.208Z,102544.72
2023-04-17T12:04:36.532Z,102554.34
2023-04-17T12:07:06.754Z,102541.25
2023-04-17T12:09:37.404Z,102548.56
2023-04-17T12:12:08.815Z,102550.34
2023-04-17T12:14:37.142Z,102548.38
2023-04-17T12:17:05.416Z,102553.22
2023-04-17T12:19:33.751Z,102554.09
2023-04-17T12:22:02.131Z,102539.69
2023-04-17T12:24:30.429Z,102545.25
2023-04-17T12:27:01.835Z,102544.63
2023-04-17T12:29:43.259Z,102539.16
2023-04-17T12:32:12.903Z,102534.66
2023-04-17T12:34:41.362Z,102532.72
2023-04-17T12:37:09.718Z,102537.56
2023-04-17T12:39:38.000Z,102536.97
2023-04-17T12:42:07.691Z,102534.03
2023-04-17T12:44:35.991Z,102537.56
2023-04-17T12:47:04.456Z,102527.34
2023-04-17T12:49:32.743Z,102527.78
2023-04-17T12:52:03.239Z,102528.31
2023-04-17T12:54:32.977Z,102531.22
2023-04-17T12:57:01.608Z,102522.00
2023-04-17T12:59:31.304Z,102514.72
2023-04-17T13:01:59.765Z,102514.34
2023-04-17T13:04:28.396Z,102530.34
2023-04-17T13:06:56.755Z,102525.84
2023-04-17T13:09:24.960Z,102523.47
2023-04-17T13:11:53.269Z,102519.53
2023-04-17T13:14:21.554Z,102521.13
2023-04-17T13:16:51.624Z,102515.16
2023-04-17T13:19:20.033Z,102533.41
2023-04-17T13:21:48.405Z,102523.59
2023-04-17T13:24:16.849Z,102509.16
2023-04-17T13:26:45.118Z,102513.63
2023-04-17T13:29:14.359Z,102503.13
2023-04-17T13:31:44.043Z,102504.31
2023-04-17T13:34:13.625Z,102498.44
2023-04-17T13:36:42.384Z,102500.53
2023-04-17T13:39:10.807Z,102500.56
2023-04-17T13:41:39.527Z,102508.13
2023-04-17T13:44:08.029Z,102476.94
2023-04-17T13:46:36.584Z,102497.47
2023-04-17T13:49:04.971Z,102492.38
2023-04-17T13:51:34.737Z,102494.75
2023-04-17T13:54:03.032Z,102498.75
2023-04-17T13:56:31.474Z,102492.56
2023-04-17T13:59:00.037Z,102494.53
2023-04-17T14:01:28.573Z,102495.25
2023-04-17T14:04:00.490Z,102489.28
2023-04-17T14:06:29.456Z,102486.84
2023-04-17T14:08:59.393Z,102483.19
2023-04-17T14:11:27.597Z,102492.44
2023-04-17T14:13:55.937Z,102482.16
2023-04-17T14:16:24.738Z,102483.66
2023-04-17T14:18:53.114Z,102479.78
2023-04-17T14:21:22.868Z,102477.53
2023-04-17T14:23:51.802Z,102467.50
2023-04-17T14:26:21.480Z,102468.78
2023-04-17T14:28:49.774Z,102479.97
2023-04-17T14:31:18.094Z,102474.63
2023-04-17T14:33:49.116Z,102470.16
2023-04-17T14:36:17.176Z,102468.00
2023-04-17T14:38:48.897Z,102467.56
2023-04-17T14:41:17.254Z,102455.47
2023-04-17T14:43:47.258Z,102445.22
2023-04-17T14:46:15.732Z,102454.97
2023-04-17T14:48:54.815Z,102452.88
2023-04-17T14:51:24.119Z,102453.91
2023-04-17T14:53:53.018Z,102452.16
2023-04-17T14:56:22.590Z,102446.16
2023-04-17T14:58:52.310Z,102462.09
2023-04-17T15:01:20.701Z,102452.63
2023-04-17T15:03:49.339Z,102451.44
2023-04-17T15:06:18.772Z,102451.88
2023-04-17T15:08:47.245Z,102433.44
2023-04-17T15:11:15.994Z,102444.06
2023-04-17T15:13:44.294Z,102450.00
2023-04-17T15:16:14.129Z,102447.28
2023-04-17T15:18:42.367Z,102433.25
2023-04-17T15:21:10.835Z,102435.97
2023-04-17T15:23:39.292Z,102436.38
2023-04-17T15:26:07.558Z,102438.78
2023-04-17T15:28:36.985Z,102435.59
2023-04-17T15:31:05.269Z,102437.91
2023-04-17T15:33:35.391Z,102429.19
2023-04-17T15:36:03.791Z,102429.56
2023-04-17T15:38:31.987Z,102439.34
2023-04-17T15:41:00.801Z,102438.19
2023-04-17T15:43:29.285Z,102438.19
2023-04-17T15:45:59.070Z,102428.41
2023-04-17T15:48:27.546Z,102428.75
2023-04-17T15:50:57.186Z,102440.03
2023-04-17T15:53:26.172Z,102440.34
2023-04-17T15:55:54.410Z,102440.53
2023-04-17T15:58:22.692Z,102436.09
2023-04-17T16:00:51.161Z,102432.81
2023-04-17T16:03:20.359Z,102433.09
2023-04-17T16:05:48.861Z,102433.41
2023-04-17T16:08:18.563Z,102427.47
2023-04-17T16:10:46.915Z,102432.09
2023-04-17T16:13:16.201Z,102437.09
2023-04-17T16:15:45.080Z,102428.47
2023-04-17T16:18:13.525Z,102428.75
2023-04-17T16:20:41.918Z,102427.88
2023-04-17T16:23:10.172Z,102436.75
2023-04-17T16:25:40.397Z,102425.75
2023-04-17T16:28:08.735Z,102432.31
2023-04-17T16:30:37.031Z,102431.03
2023-04-17T16:33:05.491Z,102421.88
2023-04-17T16:35:33.733Z,102421.47
2023-04-17T16:38:02.140Z,102421.72
2023-04-17T16:40:30.993Z,102424.72
2023-04-17T16:43:01.063Z,102421.53
2023-04-17T16:45:29.498Z,102422.59
2023-04-17T16:47:57.810Z,102417.84
2023-04-17T16:50:26.192Z,102424.78
2023-04-17T16:52:54.474Z,102423.19
2023-04-17T16:55:23.324Z,102416.88
2023-04-17T16:57:51.630Z,102425.38
2023-04-17T17:00:22.263Z,102422.59
2023-04-17T17:02:50.934Z,102428.06
2023-04-17T17:05:19.469Z,102422.50
2023-04-17T17:07:47.781Z,102413.06
2023-04-17T17:10:16.085Z,102415.31
2023-04-17T17:12:44.358Z,102416.06
2023-04-17T17:15:13.025Z,102416.75
2023-04-17T17:17:43.135Z,102412.00
2023-04-17T17:20:12.513Z,102418.59
2023-04-17T17:22:40.787Z,102418.19
2023-04-17T17:25:10.099Z,102413.03
2023-04-17T17:27:38.365Z,102404.78
2023-04-17T17:30:08.313Z,102415.56
2023-04-17T17:32:36.780Z,102413.97
2023-04-17T17:35:07.756Z,102409.25
2023-04-17T17:37:36.065Z,102410.28
2023-04-17T17:40:05.136Z,102407.91
2023-04-17T17:42:33.421Z,102404.28
2023-04-17T17:45:01.952Z,102408.06
2023-04-17T17:47:30.667Z,102407.97
2023-04-17T17:49:59.181Z,102417.97
2023-04-17T17:52:28.928Z,102416.72
2023-04-17T17:54:57.346Z,102423.22
2023-04-17T17:57:29.219Z,102419.25
2023-04-17T18:00:04.929Z,102420.28
2023-04-17T18:02:34.215Z,102422.91
2023-04-17T18:05:02.727Z,102417.38
2023-04-17T18:07:32.328Z,102423.16
2023-04-17T18:10:00.740Z,102420.69
2023-04-17T18:12:29.063Z,102421.72
2023-04-17T18:14:57.541Z,102416.13
2023-04-17T18:17:25.957Z,102423.44
2023-04-17T18:19:54.449Z,102427.19
2023-04-17T18:22:22.817Z,102422.38
2023-04-17T18:24:54.506Z,102419.44
2023-04-17T18:27:23.149Z,102430.25
2023-04-17T18:29:51.481Z,102430.38
2023-04-17T18:32:19.885Z,102435.25
2023-04-17T18:34:50.753Z,102434.34
2023-04-17T18:37:19.080Z,102426.41
2023-04-17T18:39:47.372Z,102427.75
2023-04-17T18:42:17.035Z,102434.56
2023-04-17T18:44:45.521Z,102435.56
2023-04-17T18:47:13.929Z,102445.59
2023-04-17T18:49:42.186Z,102450.44
2023-04-17T18:52:10.503Z,102441.69
2023-04-17T18:54:39.089Z,102439.97
2023-04-17T18:57:07.789Z,102450.59
2023-04-17T18:59:37.453Z,102439.13
2023-04-17T19:02:05.795Z,102448.34
2023-04-17T19:04:34.224Z,102454.00
2023-04-17T19:07:03.070Z,102448.31
2023-04-17T19:09:31.377Z,102442.28
2023-04-17T19:11:59.836Z,102450.66
2023-04-17T19:14:28.485Z,102442.22
2023-04-17T19:16:58.156Z,102443.91
2023-04-17T19:19:26.623Z,102444.72
2023-04-17T19:21:55.004Z,102446.56
2023-04-17T19:24:23.325Z,102448.22
2023-04-17T19:26:51.676Z,102452.56
2023-04-17T19:29:19.940Z,102456.13
2023-04-17T19:31:48.347Z,102457.03
2023-04-17T19:34:18.065Z,102453.53
2023-04-17T19:36:46.337Z,102458.22
2023-04-17T19:39:15.444Z,102456.38
2023-04-17T19:41:50.619Z,102453.81
2023-04-17T19:44:19.052Z,102454.69
2023-04-17T19:46:47.419Z,102458.72
2023-04-17T19:49:17.091Z,102449.91
2023-04-17T19:51:45.403Z,102459.38
2023-04-17T19:54:15.311Z,102450.13
2023-04-17T19:56:43.656Z,102449.81
2023-04-17T19:59:13.532Z,102452.59
2023-04-17T20:01:43.833Z,102449.56
2023-04-17T20:04:12.530Z,102443.50
2023-04-17T20:06:42.254Z,102438.91
2023-04-17T20:09:12.589Z,102440.19
2023-04-17T20:11:42.776Z,102439.88
2023-04-17T20:14:11.307Z,102436.88
2023-04-17T20:16:39.568Z,102439.75
2023-04-17T20:19:07.964Z,102445.94
2023-04-17T20:21:36.303Z,102444.19
2023-04-17T20:24:06.621Z,102438.63
2023-04-17T20:26:37.281Z,102441.16
2023-04-17T20:29:05.949Z,102432.25
2023-04-17T20:31:36.429Z,102437.34
2023-04-17T20:34:04.896Z,102431.91
2023-04-17T20:36:33.488Z,102443.66
2023-04-17T20:39:01.897Z,102440.78
2023-04-17T20:41:31.719Z,102446.03
2023-04-17T20:44:00.335Z,102441.25
2023-04-17T20:46:29.454Z,102434.88
2023-04-17T20:48:58.189Z,102446.97
2023-04-17T20:51:27.327Z,102439.44
2023-04-17T20:53:56.382Z,102453.63
2023-04-17T20:56:24.664Z,102436.06
2023-04-17T20:58:54.290Z,102439.91
2023-04-17T21:01:22.684Z,102441.50
2023-04-17T21:03:51.002Z,102436.59
2023-04-17T21:06:21.146Z,102444.06
2023-04-17T21:08:49.441Z,102437.25
2023-04-17T21:11:17.692Z,102442.47
2023-04-17T21:13:45.969Z,102440.28
2023-04-17T21:16:15.735Z,102436.59
2023-04-17T21:18:44.029Z,102439.03
2023-04-17T21:21:12.293Z,102437.59
2023-04-17T21:23:40.619Z,102436.16
2023-04-17T21:26:08.961Z,102442.88
2023-04-17T21:28:38.240Z,102429.81
2023-04-17T21:31:08.542Z,102433.50
2023-04-17T21:33:38.254Z,102433.03
2023-04-17T21:36:07.394Z,102431.25
2023-04-17T21:38:35.727Z,102433.00
2023-04-17T21:41:04.193Z,102428.91
2023-04-17T21:43:32.562Z,102430.66
2023-04-17T21:46:01.048Z,102429.22
2023-04-17T21:48:29.917Z,102432.41
2023-04-17T21:51:05.075Z,102434.00
2023-04-17T21:53:36.029Z,102426.38
2023-04-17T21:56:06.873Z,102437.97
2023-04-17T21:58:35.412Z,102427.94
2023-04-17T22:01:05.111Z,102423.16
2023-04-17T22:03:33.499Z,102442.13
2023-04-17T22:06:03.300Z,102440.84
2023-04-17T22:08:31.516Z,102438.47
2023-04-17T22:10:59.819Z,102446.13
2023-04-17T22:13:28.066Z,102439.41
2023-04-17T22:15:58.316Z,102442.44
2023-04-17T22:18:27.571Z,102444.03
2023-04-17T22:20:56.059Z,102431.59
2023-04-17T22:23:25.739Z,102439.22
2023-04-17T22:25:54.011Z,102441.00
2023-04-17T22:28:22.461Z,102433.16
2023-04-17T22:30:52.385Z,102436.19
2023-04-17T22:33:20.694Z,102441.16
2023-04-17T22:35:49.793Z,102435.25
2023-04-17T22:38:19.585Z,102447.69
2023-04-17T22:40:49.393Z,102448.28
2023-04-17T22:43:17.636Z,102457.53
2023-04-17T22:45:46.090Z,102451.31
2023-04-17T22:48:14.361Z,102452.78
2023-04-17T22:50:42.785Z,102453.59
2023-04-17T22:53:11.115Z,102458.50
2023-04-17T22:55:39.419Z,102459.91
2023-04-17T22:58:09.368Z,102453.25
2023-04-17T23:00:37.958Z,102463.25
2023-04-17T23:03:06.466Z,102454.16
2023-04-17T23:05:34.787Z,102461.31
2023-04-17T23:08:03.013Z,102458.63
2023-04-17T23:10:31.221Z,102458.94
2023-04-17T23:12:59.505Z,102463.88
2023-04-17T23:15:29.135Z,102459.84
2023-04-17T23:17:57.486Z,102462.09
2023-04-17T23:20:25.918Z,102452.19
2023-04-17T23:22:54.230Z,102456.66
2023-04-17T23:25:22.521Z,102454.53
2023-04-17T23:27:50.984Z,102457.91
2023-04-17T23:30:19.649Z,102463.94
2023-04-17T23:32:50.865Z,102462.94
2023-04-17T23:35:19.465Z,102461.19
2023-04-17T23:37:47.813Z,102463.22
2023-04-17T23:40:16.281Z,102462.44
2023-04-17T23:42:44.692Z,102460.03
2023-04-17T23:45:13.175Z,102469.88
2023-04-17T23:47:41.421Z,102471.28
2023-04-17T23:50:12.258Z,102468.09
2023-04-17T23:52:40.561Z,102466.81
2023-04-17T23:55:09.481Z,102467.13
2023-04-17T23:57:38.440Z,102475.38
